sensor_id;sensor_type;location;lat;lon;timestamp;P1;durP1;ratioP1;P2;durP2;ratioP2
10920;SDS011;5513;50.580;8.818;2023-02-11T00:01:20;52.83;;;30.50;;
10920;SDS011;5513;50.580;8.818;2023-02-11T00:03:51;51.93;;;30.77;;
10920;SDS011;5513;50.580;8.818;2023-02-11T00:06:21;51.73;;;29.10;;
10920;SDS011;5513;50.580;8.818;2023-02-11T00:08:51;52.33;;;29.90;;
10920;SDS011;5513;50.580;8.818;2023-02-11T00:11:19;52.90;;;31.80;;
10920;SDS011;5513;50.580;8.818;2023-02-11T00:13:52;51.13;;;30.30;;
10920;SDS011;5513;50.580;8.818;2023-02-11T00:16:20;51.53;;;30.37;;
10920;SDS011;5513;50.580;8.818;2023-02-11T00:18:49;53.10;;;29.90;;
10920;SDS011;5513;50.580;8.818;2023-02-11T00:21:19;51.67;;;30.17;;
10920;SDS011;5513;50.580;8.818;2023-02-11T00:23:51;49.63;;;29.87;;
10920;SDS011;5513;50.580;8.818;2023-02-11T00:26:20;53.40;;;30.90;;
10920;SDS011;5513;50.580;8.818;2023-02-11T00:28:52;51.27;;;30.53;;
10920;SDS011;5513;50.580;8.818;2023-02-11T00:31:22;50.90;;;29.83;;
10920;SDS011;5513;50.580;8.818;2023-02-11T00:33:51;48.97;;;29.97;;
10920;SDS011;5513;50.580;8.818;2023-02-11T00:36:21;48.03;;;28.90;;
10920;SDS011;5513;50.580;8.818;2023-02-11T00:38:51;47.37;;;28.47;;
10920;SDS011;5513;50.580;8.818;2023-02-11T00:41:20;46.97;;;29.10;;
10920;SDS011;5513;50.580;8.818;2023-02-11T00:43:49;51.83;;;30.57;;
10920;SDS011;5513;50.580;8.818;2023-02-11T00:46:19;51.13;;;30.17;;
10920;SDS011;5513;50.580;8.818;2023-02-11T00:48:47;45.93;;;28.27;;
10920;SDS011;5513;50.580;8.818;2023-02-11T00:51:17;50.57;;;29.17;;
10920;SDS011;5513;50.580;8.818;2023-02-11T00:53:47;49.23;;;29.17;;
10920;SDS011;5513;50.580;8.818;2023-02-11T00:56:17;51.83;;;29.13;;
10920;SDS011;5513;50.580;8.818;2023-02-11T00:58:45;47.40;;;28.23;;
10920;SDS011;5513;50.580;8.818;2023-02-11T01:01:14;48.60;;;30.20;;
10920;SDS011;5513;50.580;8.818;2023-02-11T01:03:43;51.40;;;29.97;;
10920;SDS011;5513;50.580;8.818;2023-02-11T01:06:12;48.53;;;29.73;;
10920;SDS011;5513;50.580;8.818;2023-02-11T01:08:43;44.37;;;27.87;;
10920;SDS011;5513;50.580;8.818;2023-02-11T01:11:12;54.90;;;30.73;;
10920;SDS011;5513;50.580;8.818;2023-02-11T01:13:42;51.07;;;30.00;;
10920;SDS011;5513;50.580;8.818;2023-02-11T01:16:11;49.00;;;28.80;;
10920;SDS011;5513;50.580;8.818;2023-02-11T01:18:40;49.83;;;29.73;;
10920;SDS011;5513;50.580;8.818;2023-02-11T01:21:11;48.73;;;28.93;;
10920;SDS011;5513;50.580;8.818;2023-02-11T01:23:40;48.17;;;28.90;;
10920;SDS011;5513;50.580;8.818;2023-02-11T01:26:09;52.93;;;28.43;;
10920;SDS011;5513;50.580;8.818;2023-02-11T01:28:37;50.77;;;29.63;;
10920;SDS011;5513;50.580;8.818;2023-02-11T01:31:05;46.20;;;27.53;;
10920;SDS011;5513;50.580;8.818;2023-02-11T01:33:34;50.07;;;29.90;;
10920;SDS011;5513;50.580;8.818;2023-02-11T01:36:05;46.73;;;27.57;;
10920;SDS011;5513;50.580;8.818;2023-02-11T01:38:35;46.70;;;27.80;;
10920;SDS011;5513;50.580;8.818;2023-02-11T01:41:06;50.80;;;27.83;;
10920;SDS011;5513;50.580;8.818;2023-02-11T01:43:38;47.73;;;28.67;;
10920;SDS011;5513;50.580;8.818;2023-02-11T01:49:03;46.87;;;27.57;;
10920;SDS011;5513;50.580;8.818;2023-02-11T01:51:35;46.90;;;27.03;;
10920;SDS011;5513;50.580;8.818;2023-02-11T01:54:08;47.87;;;27.27;;
10920;SDS011;5513;50.580;8.818;2023-02-11T01:56:56;44.70;;;26.63;;
10920;SDS011;5513;50.580;8.818;2023-02-11T01:59:46;43.60;;;27.20;;
10920;SDS011;5513;50.580;8.818;2023-02-11T02:02:20;49.00;;;26.37;;
10920;SDS011;5513;50.580;8.818;2023-02-11T02:04:52;47.07;;;27.70;;
10920;SDS011;5513;50.580;8.818;2023-02-11T02:07:27;43.60;;;25.93;;
10920;SDS011;5513;50.580;8.818;2023-02-11T02:10:04;43.57;;;26.40;;
10920;SDS011;5513;50.580;8.818;2023-02-11T02:12:38;45.93;;;27.43;;
10920;SDS011;5513;50.580;8.818;2023-02-11T02:15:19;44.97;;;26.47;;
10920;SDS011;5513;50.580;8.818;2023-02-11T02:17:53;44.87;;;26.70;;
10920;SDS011;5513;50.580;8.818;2023-02-11T02:27:04;43.60;;;25.63;;
10920;SDS011;5513;50.580;8.818;2023-02-11T02:30:07;45.93;;;25.93;;
10920;SDS011;5513;50.580;8.818;2023-02-11T02:32:50;46.77;;;26.57;;
10920;SDS011;5513;50.580;8.818;2023-02-11T02:35:33;43.33;;;25.77;;
10920;SDS011;5513;50.580;8.818;2023-02-11T02:38:10;42.97;;;26.53;;
10920;SDS011;5513;50.580;8.818;2023-02-11T02:40:44;45.33;;;25.80;;
10920;SDS011;5513;50.580;8.818;2023-02-11T02:43:16;45.27;;;26.67;;
10920;SDS011;5513;50.580;8.818;2023-02-11T02:45:46;49.90;;;26.30;;
10920;SDS011;5513;50.580;8.818;2023-02-11T02:48:24;51.43;;;28.90;;
10920;SDS011;5513;50.580;8.818;2023-02-11T02:50:55;63.33;;;32.20;;
10920;SDS011;5513;50.580;8.818;2023-02-11T02:53:35;47.43;;;27.60;;
10920;SDS011;5513;50.580;8.818;2023-02-11T02:56:19;47.73;;;27.37;;
10920;SDS011;5513;50.580;8.818;2023-02-11T03:01:53;43.17;;;24.80;;
10920;SDS011;5513;50.580;8.818;2023-02-11T03:04:33;44.30;;;25.50;;
10920;SDS011;5513;50.580;8.818;2023-02-11T03:07:08;43.57;;;26.60;;
10920;SDS011;5513;50.580;8.818;2023-02-11T03:09:47;44.83;;;25.10;;
10920;SDS011;5513;50.580;8.818;2023-02-11T03:12:18;43.70;;;26.17;;
10920;SDS011;5513;50.580;8.818;2023-02-11T03:14:49;43.73;;;24.73;;
10920;SDS011;5513;50.580;8.818;2023-02-11T03:17:19;42.87;;;26.17;;
10920;SDS011;5513;50.580;8.818;2023-02-11T03:19:52;48.60;;;28.30;;
10920;SDS011;5513;50.580;8.818;2023-02-11T03:22:22;47.50;;;27.57;;
10920;SDS011;5513;50.580;8.818;2023-02-11T03:24:54;49.50;;;28.37;;
10920;SDS011;5513;50.580;8.818;2023-02-11T03:27:25;48.37;;;27.33;;
10920;SDS011;5513;50.580;8.818;2023-02-11T03:29:57;46.77;;;27.40;;
10920;SDS011;5513;50.580;8.818;2023-02-11T03:32:34;47.13;;;28.13;;
10920;SDS011;5513;50.580;8.818;2023-02-11T03:35:08;53.57;;;29.67;;
10920;SDS011;5513;50.580;8.818;2023-02-11T03:37:42;68.13;;;38.17;;
10920;SDS011;5513;50.580;8.818;2023-02-11T03:40:18;52.03;;;30.10;;
10920;SDS011;5513;50.580;8.818;2023-02-11T03:42:50;52.13;;;29.47;;
10920;SDS011;5513;50.580;8.818;2023-02-11T03:45:21;52.33;;;28.60;;
10920;SDS011;5513;50.580;8.818;2023-02-11T03:47:53;48.10;;;28.97;;
10920;SDS011;5513;50.580;8.818;2023-02-11T03:50:26;54.00;;;28.63;;
10920;SDS011;5513;50.580;8.818;2023-02-11T03:52:56;55.37;;;29.87;;
10920;SDS011;5513;50.580;8.818;2023-02-11T03:55:27;53.70;;;30.20;;
10920;SDS011;5513;50.580;8.818;2023-02-11T03:57:59;50.80;;;29.10;;
10920;SDS011;5513;50.580;8.818;2023-02-11T04:00:29;50.60;;;30.10;;
10920;SDS011;5513;50.580;8.818;2023-02-11T04:02:57;54.23;;;30.33;;
10920;SDS011;5513;50.580;8.818;2023-02-11T04:05:29;55.47;;;31.67;;
10920;SDS011;5513;50.580;8.818;2023-02-11T04:07:58;53.47;;;29.83;;
10920;SDS011;5513;50.580;8.818;2023-02-11T04:10:27;56.23;;;30.60;;
10920;SDS011;5513;50.580;8.818;2023-02-11T04:12:55;54.03;;;29.67;;
10920;SDS011;5513;50.580;8.818;2023-02-11T04:15:24;51.27;;;30.27;;
10920;SDS011;5513;50.580;8.818;2023-02-11T04:17:54;54.20;;;31.23;;
10920;SDS011;5513;50.580;8.818;2023-02-11T04:20:22;55.67;;;31.20;;
10920;SDS011;5513;50.580;8.818;2023-02-11T04:22:52;60.70;;;31.37;;
10920;SDS011;5513;50.580;8.818;2023-02-11T04:25:20;53.53;;;30.50;;
10920;SDS011;5513;50.580;8.818;2023-02-11T04:27:49;54.00;;;30.87;;
10920;SDS011;5513;50.580;8.818;2023-02-11T04:30:17;54.93;;;29.33;;
10920;SDS011;5513;50.580;8.818;2023-02-11T04:32:46;53.33;;;30.47;;
10920;SDS011;5513;50.580;8.818;2023-02-11T04:35:14;53.80;;;30.50;;
10920;SDS011;5513;50.580;8.818;2023-02-11T04:37:42;49.67;;;29.40;;
10920;SDS011;5513;50.580;8.818;2023-02-11T04:40:12;51.53;;;28.97;;
10920;SDS011;5513;50.580;8.818;2023-02-11T04:42:40;55.17;;;31.57;;
10920;SDS011;5513;50.580;8.818;2023-02-11T04:45:08;55.93;;;29.80;;
10920;SDS011;5513;50.580;8.818;2023-02-11T04:47:37;53.00;;;30.27;;
10920;SDS011;5513;50.580;8.818;2023-02-11T04:50:05;54.73;;;29.87;;
10920;SDS011;5513;50.580;8.818;2023-02-11T04:52:34;49.97;;;29.17;;
10920;SDS011;5513;50.580;8.818;2023-02-11T04:55:02;49.60;;;29.00;;
10920;SDS011;5513;50.580;8.818;2023-02-11T04:57:32;56.37;;;29.73;;
10920;SDS011;5513;50.580;8.818;2023-02-11T05:00:02;56.97;;;31.03;;
10920;SDS011;5513;50.580;8.818;2023-02-11T05:02:31;53.10;;;30.23;;
10920;SDS011;5513;50.580;8.818;2023-02-11T05:04:59;53.40;;;29.80;;
10920;SDS011;5513;50.580;8.818;2023-02-11T05:07:28;53.53;;;30.80;;
10920;SDS011;5513;50.580;8.818;2023-02-11T05:09:56;56.37;;;31.23;;
10920;SDS011;5513;50.580;8.818;2023-02-11T05:12:24;56.37;;;30.53;;
10920;SDS011;5513;50.580;8.818;2023-02-11T05:14:54;58.27;;;32.27;;
10920;SDS011;5513;50.580;8.818;2023-02-11T05:17:22;52.37;;;31.20;;
10920;SDS011;5513;50.580;8.818;2023-02-11T05:19:51;60.10;;;32.73;;
10920;SDS011;5513;50.580;8.818;2023-02-11T05:22:19;55.63;;;30.27;;
10920;SDS011;5513;50.580;8.818;2023-02-11T05:24:48;54.40;;;30.67;;
10920;SDS011;5513;50.580;8.818;2023-02-11T05:27:18;58.23;;;31.23;;
10920;SDS011;5513;50.580;8.818;2023-02-11T05:29:47;52.40;;;31.40;;
10920;SDS011;5513;50.580;8.818;2023-02-11T05:32:16;56.83;;;31.60;;
10920;SDS011;5513;50.580;8.818;2023-02-11T05:34:45;58.77;;;32.80;;
10920;SDS011;5513;50.580;8.818;2023-02-11T05:37:13;60.30;;;32.73;;
10920;SDS011;5513;50.580;8.818;2023-02-11T05:39:41;57.73;;;31.93;;
10920;SDS011;5513;50.580;8.818;2023-02-11T05:42:12;55.57;;;32.50;;
10920;SDS011;5513;50.580;8.818;2023-02-11T05:44:40;61.70;;;33.77;;
10920;SDS011;5513;50.580;8.818;2023-02-11T05:47:08;56.40;;;33.57;;
10920;SDS011;5513;50.580;8.818;2023-02-11T05:49:40;59.77;;;33.90;;
10920;SDS011;5513;50.580;8.818;2023-02-11T05:52:10;68.73;;;36.77;;
10920;SDS011;5513;50.580;8.818;2023-02-11T05:54:42;64.30;;;36.13;;
10920;SDS011;5513;50.580;8.818;2023-02-11T05:57:15;106.90;;;52.73;;
10920;SDS011;5513;50.580;8.818;2023-02-11T05:59:44;74.73;;;40.37;;
10920;SDS011;5513;50.580;8.818;2023-02-11T06:02:12;61.97;;;35.10;;
10920;SDS011;5513;50.580;8.818;2023-02-11T06:04:42;65.03;;;35.60;;
10920;SDS011;5513;50.580;8.818;2023-02-11T06:07:10;59.87;;;33.93;;
10920;SDS011;5513;50.580;8.818;2023-02-11T06:09:38;60.07;;;34.57;;
10920;SDS011;5513;50.580;8.818;2023-02-11T06:12:07;58.57;;;32.00;;
10920;SDS011;5513;50.580;8.818;2023-02-11T06:14:35;64.50;;;36.83;;
10920;SDS011;5513;50.580;8.818;2023-02-11T06:17:04;65.80;;;36.83;;
10920;SDS011;5513;50.580;8.818;2023-02-11T06:19:33;61.80;;;35.20;;
10920;SDS011;5513;50.580;8.818;2023-02-11T06:22:03;58.37;;;34.10;;
10920;SDS011;5513;50.580;8.818;2023-02-11T06:24:31;59.53;;;32.37;;
10920;SDS011;5513;50.580;8.818;2023-02-11T06:27:20;55.80;;;31.83;;
10920;SDS011;5513;50.580;8.818;2023-02-11T06:29:49;61.50;;;33.23;;
10920;SDS011;5513;50.580;8.818;2023-02-11T06:32:19;57.50;;;32.83;;
10920;SDS011;5513;50.580;8.818;2023-02-11T06:35:07;59.53;;;31.83;;
10920;SDS011;5513;50.580;8.818;2023-02-11T06:37:41;57.70;;;32.47;;
10920;SDS011;5513;50.580;8.818;2023-02-11T06:40:10;64.47;;;35.40;;
10920;SDS011;5513;50.580;8.818;2023-02-11T06:42:39;62.40;;;34.33;;
10920;SDS011;5513;50.580;8.818;2023-02-11T06:45:07;58.77;;;34.20;;
10920;SDS011;5513;50.580;8.818;2023-02-11T06:47:37;58.30;;;33.20;;
10920;SDS011;5513;50.580;8.818;2023-02-11T06:50:06;60.27;;;34.37;;
10920;SDS011;5513;50.580;8.818;2023-02-11T06:52:37;61.37;;;34.33;;
10920;SDS011;5513;50.580;8.818;2023-02-11T06:55:07;58.23;;;33.00;;
10920;SDS011;5513;50.580;8.818;2023-02-11T06:57:36;59.57;;;34.23;;
10920;SDS011;5513;50.580;8.818;2023-02-11T07:00:05;61.43;;;33.87;;
10920;SDS011;5513;50.580;8.818;2023-02-11T07:02:34;61.33;;;33.57;;
10920;SDS011;5513;50.580;8.818;2023-02-11T07:05:04;56.27;;;33.80;;
10920;SDS011;5513;50.580;8.818;2023-02-11T07:07:33;61.90;;;35.70;;
10920;SDS011;5513;50.580;8.818;2023-02-11T07:10:02;56.90;;;34.40;;
10920;SDS011;5513;50.580;8.818;2023-02-11T07:12:32;64.23;;;34.53;;
10920;SDS011;5513;50.580;8.818;2023-02-11T07:15:01;65.30;;;34.70;;
10920;SDS011;5513;50.580;8.818;2023-02-11T07:17:30;62.23;;;35.90;;
10920;SDS011;5513;50.580;8.818;2023-02-11T07:19:58;70.03;;;37.13;;
10920;SDS011;5513;50.580;8.818;2023-02-11T07:22:27;68.33;;;36.50;;
10920;SDS011;5513;50.580;8.818;2023-02-11T07:24:56;68.07;;;38.03;;
10920;SDS011;5513;50.580;8.818;2023-02-11T07:27:25;63.50;;;35.00;;
10920;SDS011;5513;50.580;8.818;2023-02-11T07:29:54;64.53;;;36.03;;
10920;SDS011;5513;50.580;8.818;2023-02-11T07:32:22;63.83;;;35.37;;
10920;SDS011;5513;50.580;8.818;2023-02-11T07:34:50;65.00;;;36.83;;
10920;SDS011;5513;50.580;8.818;2023-02-11T07:37:19;67.23;;;37.13;;
10920;SDS011;5513;50.580;8.818;2023-02-11T07:39:48;66.27;;;38.57;;
10920;SDS011;5513;50.580;8.818;2023-02-11T07:42:17;64.83;;;37.03;;
10920;SDS011;5513;50.580;8.818;2023-02-11T07:44:45;61.17;;;36.53;;
10920;SDS011;5513;50.580;8.818;2023-02-11T07:47:17;66.73;;;37.97;;
10920;SDS011;5513;50.580;8.818;2023-02-11T07:49:45;66.37;;;38.97;;
10920;SDS011;5513;50.580;8.818;2023-02-11T07:52:14;66.50;;;36.07;;
10920;SDS011;5513;50.580;8.818;2023-02-11T07:54:42;61.80;;;35.60;;
10920;SDS011;5513;50.580;8.818;2023-02-11T07:57:10;60.37;;;34.87;;
10920;SDS011;5513;50.580;8.818;2023-02-11T07:59:39;67.07;;;35.87;;
10920;SDS011;5513;50.580;8.818;2023-02-11T08:02:07;67.90;;;36.40;;
10920;SDS011;5513;50.580;8.818;2023-02-11T08:04:38;64.03;;;35.03;;
10920;SDS011;5513;50.580;8.818;2023-02-11T08:07:06;61.43;;;35.40;;
10920;SDS011;5513;50.580;8.818;2023-02-11T08:09:34;61.23;;;35.43;;
10920;SDS011;5513;50.580;8.818;2023-02-11T08:12:03;63.83;;;35.97;;
10920;SDS011;5513;50.580;8.818;2023-02-11T08:14:32;62.93;;;35.80;;
10920;SDS011;5513;50.580;8.818;2023-02-11T08:17:00;63.00;;;35.87;;
10920;SDS011;5513;50.580;8.818;2023-02-11T08:19:28;63.40;;;34.80;;
10920;SDS011;5513;50.580;8.818;2023-02-11T08:22:01;62.10;;;35.83;;
10920;SDS011;5513;50.580;8.818;2023-02-11T08:24:30;65.80;;;34.73;;
10920;SDS011;5513;50.580;8.818;2023-02-11T08:26:58;63.90;;;34.33;;
10920;SDS011;5513;50.580;8.818;2023-02-11T08:29:26;62.00;;;34.07;;
10920;SDS011;5513;50.580;8.818;2023-02-11T08:31:55;65.17;;;35.53;;
10920;SDS011;5513;50.580;8.818;2023-02-11T08:34:24;58.73;;;34.13;;
10920;SDS011;5513;50.580;8.818;2023-02-11T08:36:53;68.73;;;36.37;;
10920;SDS011;5513;50.580;8.818;2023-02-11T08:39:22;57.57;;;34.30;;
10920;SDS011;5513;50.580;8.818;2023-02-11T08:41:52;56.97;;;32.23;;
10920;SDS011;5513;50.580;8.818;2023-02-11T08:44:23;62.93;;;35.63;;
10920;SDS011;5513;50.580;8.818;2023-02-11T08:46:52;62.33;;;36.53;;
10920;SDS011;5513;50.580;8.818;2023-02-11T08:49:21;59.23;;;34.90;;
10920;SDS011;5513;50.580;8.818;2023-02-11T08:51:49;61.47;;;35.27;;
10920;SDS011;5513;50.580;8.818;2023-02-11T08:54:18;61.53;;;34.37;;
10920;SDS011;5513;50.580;8.818;2023-02-11T08:56:49;62.87;;;35.37;;
10920;SDS011;5513;50.580;8.818;2023-02-11T08:59:18;58.90;;;35.23;;
10920;SDS011;5513;50.580;8.818;2023-02-11T09:01:47;64.40;;;35.63;;
10920;SDS011;5513;50.580;8.818;2023-02-11T09:04:16;62.87;;;34.93;;
10920;SDS011;5513;50.580;8.818;2023-02-11T09:06:45;62.77;;;35.87;;
10920;SDS011;5513;50.580;8.818;2023-02-11T09:09:14;57.83;;;34.33;;
10920;SDS011;5513;50.580;8.818;2023-02-11T09:11:43;58.90;;;33.77;;
10920;SDS011;5513;50.580;8.818;2023-02-11T09:14:17;62.13;;;35.87;;
10920;SDS011;5513;50.580;8.818;2023-02-11T09:16:47;56.33;;;33.90;;
10920;SDS011;5513;50.580;8.818;2023-02-11T09:19:16;57.93;;;34.20;;
10920;SDS011;5513;50.580;8.818;2023-02-11T09:21:45;55.47;;;32.43;;
10920;SDS011;5513;50.580;8.818;2023-02-11T09:24:13;59.57;;;34.30;;
10920;SDS011;5513;50.580;8.818;2023-02-11T09:26:42;57.80;;;34.23;;
10920;SDS011;5513;50.580;8.818;2023-02-11T09:29:10;60.33;;;34.53;;
10920;SDS011;5513;50.580;8.818;2023-02-11T09:31:40;55.43;;;34.83;;
10920;SDS011;5513;50.580;8.818;2023-02-11T09:34:09;55.73;;;33.37;;
10920;SDS011;5513;50.580;8.818;2023-02-11T09:36:39;58.07;;;32.90;;
10920;SDS011;5513;50.580;8.818;2023-02-11T09:39:08;59.53;;;35.53;;
10920;SDS011;5513;50.580;8.818;2023-02-11T09:41:41;58.83;;;33.20;;
10920;SDS011;5513;50.580;8.818;2023-02-11T09:44:22;57.27;;;32.93;;
10920;SDS011;5513;50.580;8.818;2023-02-11T09:46:54;58.37;;;32.60;;
10920;SDS011;5513;50.580;8.818;2023-02-11T09:49:28;51.70;;;31.57;;
10920;SDS011;5513;50.580;8.818;2023-02-11T09:52:03;57.33;;;32.73;;
10920;SDS011;5513;50.580;8.818;2023-02-11T09:54:33;53.30;;;32.47;;
10920;SDS011;5513;50.580;8.818;2023-02-11T09:57:07;55.33;;;33.07;;
10920;SDS011;5513;50.580;8.818;2023-02-11T09:59:54;55.40;;;32.47;;
10920;SDS011;5513;50.580;8.818;2023-02-11T10:02:26;55.77;;;34.13;;
10920;SDS011;5513;50.580;8.818;2023-02-11T10:05:17;58.10;;;32.93;;
10920;SDS011;5513;50.580;8.818;2023-02-11T10:07:55;52.40;;;32.53;;
10920;SDS011;5513;50.580;8.818;2023-02-11T10:10:38;46.87;;;31.10;;
10920;SDS011;5513;50.580;8.818;2023-02-11T10:13:24;53.90;;;31.57;;
10920;SDS011;5513;50.580;8.818;2023-02-11T10:16:19;53.90;;;31.47;;
10920;SDS011;5513;50.580;8.818;2023-02-11T10:19:00;54.57;;;32.67;;
10920;SDS011;5513;50.580;8.818;2023-02-11T10:21:42;51.37;;;31.13;;
10920;SDS011;5513;50.580;8.818;2023-02-11T10:24:17;55.43;;;34.13;;
10920;SDS011;5513;50.580;8.818;2023-02-11T10:26:46;53.77;;;32.63;;
10920;SDS011;5513;50.580;8.818;2023-02-11T10:29:20;55.73;;;32.00;;
10920;SDS011;5513;50.580;8.818;2023-02-11T10:32:01;56.53;;;32.10;;
10920;SDS011;5513;50.580;8.818;2023-02-11T10:34:37;51.07;;;31.93;;
10920;SDS011;5513;50.580;8.818;2023-02-11T10:37:11;52.40;;;32.53;;
10920;SDS011;5513;50.580;8.818;2023-02-11T10:39:40;54.03;;;33.67;;
10920;SDS011;5513;50.580;8.818;2023-02-11T10:42:09;57.40;;;34.13;;
10920;SDS011;5513;50.580;8.818;2023-02-11T10:44:41;56.93;;;32.43;;
10920;SDS011;5513;50.580;8.818;2023-02-11T10:47:18;53.77;;;32.47;;
10920;SDS011;5513;50.580;8.818;2023-02-11T10:49:51;58.13;;;33.40;;
10920;SDS011;5513;50.580;8.818;2023-02-11T10:52:21;54.63;;;33.57;;
10920;SDS011;5513;50.580;8.818;2023-02-11T10:54:58;62.07;;;34.93;;
10920;SDS011;5513;50.580;8.818;2023-02-11T10:57:33;55.17;;;33.37;;
10920;SDS011;5513;50.580;8.818;2023-02-11T11:00:05;58.23;;;33.57;;
10920;SDS011;5513;50.580;8.818;2023-02-11T11:02:51;58.33;;;34.20;;
10920;SDS011;5513;50.580;8.818;2023-02-11T11:05:26;56.90;;;35.23;;
10920;SDS011;5513;50.580;8.818;2023-02-11T11:07:58;60.40;;;33.40;;
10920;SDS011;5513;50.580;8.818;2023-02-11T11:10:32;55.63;;;34.30;;
10920;SDS011;5513;50.580;8.818;2023-02-11T11:13:25;55.53;;;33.67;;
10920;SDS011;5513;50.580;8.818;2023-02-11T11:18:50;59.20;;;34.23;;
10920;SDS011;5513;50.580;8.818;2023-02-11T11:21:22;54.83;;;33.33;;
10920;SDS011;5513;50.580;8.818;2023-02-11T11:23:53;54.27;;;32.80;;
10920;SDS011;5513;50.580;8.818;2023-02-11T11:26:24;57.20;;;34.77;;
10920;SDS011;5513;50.580;8.818;2023-02-11T11:28:58;56.37;;;35.43;;
10920;SDS011;5513;50.580;8.818;2023-02-11T11:31:30;53.30;;;32.00;;
10920;SDS011;5513;50.580;8.818;2023-02-11T11:34:02;56.73;;;33.47;;
10920;SDS011;5513;50.580;8.818;2023-02-11T11:36:47;52.87;;;33.53;;
10920;SDS011;5513;50.580;8.818;2023-02-11T11:39:18;55.40;;;32.50;;
10920;SDS011;5513;50.580;8.818;2023-02-11T11:41:50;52.20;;;31.83;;
10920;SDS011;5513;50.580;8.818;2023-02-11T11:44:22;54.57;;;32.87;;
10920;SDS011;5513;50.580;8.818;2023-02-11T11:47:06;50.23;;;31.57;;
10920;SDS011;5513;50.580;8.818;2023-02-11T11:49:47;58.40;;;32.40;;
10920;SDS011;5513;50.580;8.818;2023-02-11T11:52:31;55.13;;;32.67;;
10920;SDS011;5513;50.580;8.818;2023-02-11T11:55:04;58.67;;;33.43;;
10920;SDS011;5513;50.580;8.818;2023-02-11T11:57:40;55.70;;;32.53;;
10920;SDS011;5513;50.580;8.818;2023-02-11T12:00:13;55.60;;;33.23;;
10920;SDS011;5513;50.580;8.818;2023-02-11T12:06:00;58.23;;;33.60;;
10920;SDS011;5513;50.580;8.818;2023-02-11T12:08:41;59.20;;;33.67;;
10920;SDS011;5513;50.580;8.818;2023-02-11T12:11:17;51.30;;;31.83;;
10920;SDS011;5513;50.580;8.818;2023-02-11T12:13:56;60.77;;;36.00;;
10920;SDS011;5513;50.580;8.818;2023-02-11T12:16:43;58.60;;;34.13;;
10920;SDS011;5513;50.580;8.818;2023-02-11T12:22:19;50.00;;;30.80;;
10920;SDS011;5513;50.580;8.818;2023-02-11T12:25:06;57.47;;;31.63;;
10920;SDS011;5513;50.580;8.818;2023-02-11T12:27:48;51.23;;;31.70;;
10920;SDS011;5513;50.580;8.818;2023-02-11T12:33:18;58.33;;;34.13;;
10920;SDS011;5513;50.580;8.818;2023-02-11T12:36:01;63.43;;;37.03;;
10920;SDS011;5513;50.580;8.818;2023-02-11T12:38:47;60.30;;;35.93;;
10920;SDS011;5513;50.580;8.818;2023-02-11T12:41:47;54.80;;;33.80;;
10920;SDS011;5513;50.580;8.818;2023-02-11T12:44:49;55.80;;;32.63;;
10920;SDS011;5513;50.580;8.818;2023-02-11T12:47:36;54.67;;;32.60;;
10920;SDS011;5513;50.580;8.818;2023-02-11T12:50:18;55.70;;;32.50;;
10920;SDS011;5513;50.580;8.818;2023-02-11T12:53:03;55.33;;;31.47;;
10920;SDS011;5513;50.580;8.818;2023-02-11T12:55:45;51.63;;;31.40;;
10920;SDS011;5513;50.580;8.818;2023-02-11T12:58:19;52.70;;;31.17;;
10920;SDS011;5513;50.580;8.818;2023-02-11T13:01:09;57.50;;;31.07;;
10920;SDS011;5513;50.580;8.818;2023-02-11T13:03:43;51.13;;;30.03;;
10920;SDS011;5513;50.580;8.818;2023-02-11T13:06:17;56.40;;;33.87;;
10920;SDS011;5513;50.580;8.818;2023-02-11T13:08:49;53.20;;;29.97;;
10920;SDS011;5513;50.580;8.818;2023-02-11T13:11:21;52.83;;;26.57;;
10920;SDS011;5513;50.580;8.818;2023-02-11T13:13:55;48.63;;;28.70;;
10920;SDS011;5513;50.580;8.818;2023-02-11T13:16:30;47.10;;;26.23;;
10920;SDS011;5513;50.580;8.818;2023-02-11T13:19:05;49.00;;;26.60;;
10920;SDS011;5513;50.580;8.818;2023-02-11T13:21:47;49.43;;;27.63;;
10920;SDS011;5513;50.580;8.818;2023-02-11T13:24:24;43.63;;;25.30;;
10920;SDS011;5513;50.580;8.818;2023-02-11T13:27:03;56.50;;;28.47;;
10920;SDS011;5513;50.580;8.818;2023-02-11T13:29:41;45.90;;;24.17;;
10920;SDS011;5513;50.580;8.818;2023-02-11T13:35:30;49.60;;;26.57;;
10920;SDS011;5513;50.580;8.818;2023-02-11T13:38:00;47.77;;;26.00;;
10920;SDS011;5513;50.580;8.818;2023-02-11T13:40:31;48.53;;;27.43;;
10920;SDS011;5513;50.580;8.818;2023-02-11T13:43:04;47.63;;;25.67;;
10920;SDS011;5513;50.580;8.818;2023-02-11T13:45:47;46.50;;;25.27;;
10920;SDS011;5513;50.580;8.818;2023-02-11T13:48:19;45.00;;;25.03;;
10920;SDS011;5513;50.580;8.818;2023-02-11T13:50:50;48.03;;;25.03;;
10920;SDS011;5513;50.580;8.818;2023-02-11T13:53:23;45.33;;;24.00;;
10920;SDS011;5513;50.580;8.818;2023-02-11T13:56:03;47.40;;;24.60;;
10920;SDS011;5513;50.580;8.818;2023-02-11T13:58:35;54.27;;;32.60;;
10920;SDS011;5513;50.580;8.818;2023-02-11T14:01:07;45.50;;;24.73;;
10920;SDS011;5513;50.580;8.818;2023-02-11T14:03:36;44.00;;;23.87;;
10920;SDS011;5513;50.580;8.818;2023-02-11T14:06:26;41.80;;;24.40;;
10920;SDS011;5513;50.580;8.818;2023-02-11T14:17:47;52.30;;;26.17;;
10920;SDS011;5513;50.580;8.818;2023-02-11T14:20:35;42.87;;;22.90;;
10920;SDS011;5513;50.580;8.818;2023-02-11T14:23:20;55.43;;;33.40;;
10920;SDS011;5513;50.580;8.818;2023-02-11T14:26:04;45.50;;;22.83;;
10920;SDS011;5513;50.580;8.818;2023-02-11T14:28:50;43.83;;;23.27;;
10920;SDS011;5513;50.580;8.818;2023-02-11T14:31:27;42.87;;;23.93;;
10920;SDS011;5513;50.580;8.818;2023-02-11T14:37:00;48.97;;;24.80;;
10920;SDS011;5513;50.580;8.818;2023-02-11T14:39:39;52.73;;;25.87;;
10920;SDS011;5513;50.580;8.818;2023-02-11T14:42:20;48.63;;;25.43;;
10920;SDS011;5513;50.580;8.818;2023-02-11T14:44:53;48.33;;;25.23;;
10920;SDS011;5513;50.580;8.818;2023-02-11T14:47:25;52.17;;;26.40;;
10920;SDS011;5513;50.580;8.818;2023-02-11T14:49:57;85.97;;;48.03;;
10920;SDS011;5513;50.580;8.818;2023-02-11T14:52:27;50.87;;;26.50;;
10920;SDS011;5513;50.580;8.818;2023-02-11T14:55:01;64.53;;;38.33;;
10920;SDS011;5513;50.580;8.818;2023-02-11T14:57:40;47.63;;;26.27;;
10920;SDS011;5513;50.580;8.818;2023-02-11T15:00:15;54.47;;;27.10;;
10920;SDS011;5513;50.580;8.818;2023-02-11T15:02:46;50.03;;;25.70;;
10920;SDS011;5513;50.580;8.818;2023-02-11T15:05:16;52.90;;;27.57;;
10920;SDS011;5513;50.580;8.818;2023-02-11T15:07:53;50.40;;;26.10;;
10920;SDS011;5513;50.580;8.818;2023-02-11T15:10:26;52.20;;;27.20;;
10920;SDS011;5513;50.580;8.818;2023-02-11T15:12:58;51.40;;;25.40;;
10920;SDS011;5513;50.580;8.818;2023-02-11T15:15:28;49.43;;;26.00;;
10920;SDS011;5513;50.580;8.818;2023-02-11T15:18:00;53.77;;;27.00;;
10920;SDS011;5513;50.580;8.818;2023-02-11T15:20:31;51.07;;;25.97;;
10920;SDS011;5513;50.580;8.818;2023-02-11T15:23:03;46.13;;;24.47;;
10920;SDS011;5513;50.580;8.818;2023-02-11T15:25:41;54.63;;;27.50;;
10920;SDS011;5513;50.580;8.818;2023-02-11T15:28:11;49.47;;;26.50;;
10920;SDS011;5513;50.580;8.818;2023-02-11T15:30:54;46.73;;;25.27;;
10920;SDS011;5513;50.580;8.818;2023-02-11T15:33:23;52.30;;;26.03;;
10920;SDS011;5513;50.580;8.818;2023-02-11T15:35:55;48.93;;;24.63;;
10920;SDS011;5513;50.580;8.818;2023-02-11T15:38:26;48.90;;;26.03;;
10920;SDS011;5513;50.580;8.818;2023-02-11T15:40:56;47.10;;;24.87;;
10920;SDS011;5513;50.580;8.818;2023-02-11T15:43:40;48.50;;;24.83;;
10920;SDS011;5513;50.580;8.818;2023-02-11T15:46:10;52.63;;;29.13;;